sensor_id;sensor_type;location;lat;lon;timestamp;temperature;humidity
76102;SHT30;64830;46.910;6.354;2023-05-20T00:01:27;10.72;78.47
76102;SHT30;64830;46.910;6.354;2023-05-20T00:03:53;10.72;78.51
76102;SHT30;64830;46.910;6.354;2023-05-20T00:06:18;10.74;78.39
76102;SHT30;64830;46.910;6.354;2023-05-20T00:08:44;10.72;78.11
76102;SHT30;64830;46.910;6.354;2023-05-20T00:11:09;10.70;78.42
76102;SHT30;64830;46.910;6.354;2023-05-20T00:13:35;10.66;78.48
76102;SHT30;64830;46.910;6.354;2023-05-20T00:16:01;10.66;78.30
76102;SHT30;64830;46.910;6.354;2023-05-20T00:18:26;10.65;78.27
76102;SHT30;64830;46.910;6.354;2023-05-20T00:20:51;10.60;78.71
76102;SHT30;64830;46.910;6.354;2023-05-20T00:23:18;10.57;78.76
76102;SHT30;64830;46.910;6.354;2023-05-20T00:25:44;10.60;78.92
76102;SHT30;64830;46.910;6.354;2023-05-20T00:28:09;10.59;78.63
76102;SHT30;64830;46.910;6.354;2023-05-20T00:30:35;10.57;78.77
76102;SHT30;64830;46.910;6.354;2023-05-20T00:33:00;10.57;78.73
76102;SHT30;64830;46.910;6.354;2023-05-20T00:35:25;10.55;78.96
76102;SHT30;64830;46.910;6.354;2023-05-20T00:37:51;10.55;78.87
76102;SHT30;64830;46.910;6.354;2023-05-20T00:40:16;10.53;78.84
76102;SHT30;64830;46.910;6.354;2023-05-20T00:42:42;10.50;78.99
76102;SHT30;64830;46.910;6.354;2023-05-20T00:45:07;10.49;78.91
76102;SHT30;64830;46.910;6.354;2023-05-20T00:47:34;10.48;79.08
76102;SHT30;64830;46.910;6.354;2023-05-20T00:50:01;10.48;79.12
76102;SHT30;64830;46.910;6.354;2023-05-20T00:52:32;10.48;79.08
76102;SHT30;64830;46.910;6.354;2023-05-20T00:54:58;10.46;78.68
76102;SHT30;64830;46.910;6.354;2023-05-20T00:57:24;10.41;79.03
76102;SHT30;64830;46.910;6.354;2023-05-20T00:59:50;10.44;79.01
76102;SHT30;64830;46.910;6.354;2023-05-20T01:02:16;10.42;79.02
76102;SHT30;64830;46.910;6.354;2023-05-20T01:04:41;10.41;79.14
76102;SHT30;64830;46.910;6.354;2023-05-20T01:07:13;10.38;78.99
76102;SHT30;64830;46.910;6.354;2023-05-20T01:09:39;10.38;79.07
76102;SHT30;64830;46.910;6.354;2023-05-20T01:12:20;10.39;79.20
76102;SHT30;64830;46.910;6.354;2023-05-20T01:15:07;10.39;79.18
76102;SHT30;64830;46.910;6.354;2023-05-20T01:17:37;10.39;79.25
76102;SHT30;64830;46.910;6.354;2023-05-20T01:20:03;10.38;79.18
76102;SHT30;64830;46.910;6.354;2023-05-20T01:22:30;10.39;79.14
76102;SHT30;64830;46.910;6.354;2023-05-20T01:24:55;10.39;79.19
76102;SHT30;64830;46.910;6.354;2023-05-20T01:27:21;10.36;79.01
76102;SHT30;64830;46.910;6.354;2023-05-20T01:29:48;10.32;78.98
76102;SHT30;64830;46.910;6.354;2023-05-20T01:32:23;10.31;79.30
76102;SHT30;64830;46.910;6.354;2023-05-20T01:34:51;10.31;79.16
76102;SHT30;64830;46.910;6.354;2023-05-20T01:37:18;10.32;79.13
76102;SHT30;64830;46.910;6.354;2023-05-20T01:39:44;10.31;79.68
76102;SHT30;64830;46.910;6.354;2023-05-20T01:42:11;10.31;79.24
76102;SHT30;64830;46.910;6.354;2023-05-20T01:44:38;10.29;79.22
76102;SHT30;64830;46.910;6.354;2023-05-20T01:47:04;10.28;79.48
76102;SHT30;64830;46.910;6.354;2023-05-20T01:49:29;10.27;79.53
76102;SHT30;64830;46.910;6.354;2023-05-20T01:51:55;10.24;79.58
76102;SHT30;64830;46.910;6.354;2023-05-20T01:54:21;10.27;79.47
76102;SHT30;64830;46.910;6.354;2023-05-20T01:56:46;10.28;79.56
76102;SHT30;64830;46.910;6.354;2023-05-20T01:59:12;10.29;79.45
76102;SHT30;64830;46.910;6.354;2023-05-20T02:01:37;10.28;79.39
76102;SHT30;64830;46.910;6.354;2023-05-20T02:04:03;10.29;79.73
76102;SHT30;64830;46.910;6.354;2023-05-20T02:06:28;10.32;79.62
76102;SHT30;64830;46.910;6.354;2023-05-20T02:08:54;10.31;79.51
76102;SHT30;64830;46.910;6.354;2023-05-20T02:11:19;10.28;79.61
76102;SHT30;64830;46.910;6.354;2023-05-20T02:13:45;10.21;79.49
76102;SHT30;64830;46.910;6.354;2023-05-20T02:16:11;10.22;79.53
76102;SHT30;64830;46.910;6.354;2023-05-20T02:18:36;10.19;79.79
76102;SHT30;64830;46.910;6.354;2023-05-20T02:21:03;10.18;79.52
76102;SHT30;64830;46.910;6.354;2023-05-20T02:23:30;10.15;79.55
76102;SHT30;64830;46.910;6.354;2023-05-20T02:25:55;10.14;79.57
76102;SHT30;64830;46.910;6.354;2023-05-20T02:28:20;10.10;79.55
76102;SHT30;64830;46.910;6.354;2023-05-20T02:30:46;10.07;79.52
76102;SHT30;64830;46.910;6.354;2023-05-20T02:33:11;10.04;79.60
76102;SHT30;64830;46.910;6.354;2023-05-20T02:35:38;10.00;79.44
76102;SHT30;64830;46.910;6.354;2023-05-20T02:38:04;9.98;79.49
76102;SHT30;64830;46.910;6.354;2023-05-20T02:40:29;9.98;79.38
76102;SHT30;64830;46.910;6.354;2023-05-20T02:42:55;9.98;79.40
76102;SHT30;64830;46.910;6.354;2023-05-20T02:45:24;9.98;79.42
76102;SHT30;64830;46.910;6.354;2023-05-20T02:47:49;9.95;79.59
76102;SHT30;64830;46.910;6.354;2023-05-20T02:50:18;9.97;79.60
76102;SHT30;64830;46.910;6.354;2023-05-20T02:52:46;10.00;79.65
76102;SHT30;64830;46.910;6.354;2023-05-20T02:55:12;10.01;79.58
76102;SHT30;64830;46.910;6.354;2023-05-20T02:57:40;10.02;79.40
76102;SHT30;64830;46.910;6.354;2023-05-20T03:00:07;10.01;79.17
76102;SHT30;64830;46.910;6.354;2023-05-20T03:02:35;9.97;79.41
76102;SHT30;64830;46.910;6.354;2023-05-20T03:05:06;9.97;79.20
76102;SHT30;64830;46.910;6.354;2023-05-20T03:07:36;9.97;79.34
76102;SHT30;64830;46.910;6.354;2023-05-20T03:10:01;9.95;79.42
76102;SHT30;64830;46.910;6.354;2023-05-20T03:12:28;9.93;79.33
76102;SHT30;64830;46.910;6.354;2023-05-20T03:14:53;9.91;79.43
76102;SHT30;64830;46.910;6.354;2023-05-20T03:17:22;9.93;79.27
76102;SHT30;64830;46.910;6.354;2023-05-20T03:19:47;9.87;79.33
76102;SHT30;64830;46.910;6.354;2023-05-20T03:22:13;9.89;79.55
76102;SHT30;64830;46.910;6.354;2023-05-20T03:24:38;9.86;79.54
76102;SHT30;64830;46.910;6.354;2023-05-20T03:27:05;9.84;79.50
76102;SHT30;64830;46.910;6.354;2023-05-20T03:29:31;9.82;79.60
76102;SHT30;64830;46.910;6.354;2023-05-20T03:31:57;9.82;79.59
76102;SHT30;64830;46.910;6.354;2023-05-20T03:34:23;9.82;79.67
76102;SHT30;64830;46.910;6.354;2023-05-20T03:36:50;9.80;79.85
76102;SHT30;64830;46.910;6.354;2023-05-20T03:39:15;9.79;79.78
76102;SHT30;64830;46.910;6.354;2023-05-20T03:41:41;9.73;79.79
76102;SHT30;64830;46.910;6.354;2023-05-20T03:44:06;9.70;79.87
76102;SHT30;64830;46.910;6.354;2023-05-20T03:46:31;9.69;80.04
76102;SHT30;64830;46.910;6.354;2023-05-20T03:48:58;9.67;80.07
76102;SHT30;64830;46.910;6.354;2023-05-20T03:51:24;9.65;80.00
76102;SHT30;64830;46.910;6.354;2023-05-20T03:53:49;9.66;79.91
76102;SHT30;64830;46.910;6.354;2023-05-20T03:56:15;9.65;79.87
76102;SHT30;64830;46.910;6.354;2023-05-20T03:58:41;9.66;79.84
76102;SHT30;64830;46.910;6.354;2023-05-20T04:01:07;9.69;79.80
76102;SHT30;64830;46.910;6.354;2023-05-20T04:03:32;9.72;79.73
76102;SHT30;64830;46.910;6.354;2023-05-20T04:05:58;9.70;79.89
76102;SHT30;64830;46.910;6.354;2023-05-20T04:08:23;9.67;79.84
76102;SHT30;64830;46.910;6.354;2023-05-20T04:10:54;9.67;79.77
76102;SHT30;64830;46.910;6.354;2023-05-20T04:13:19;9.65;79.85
76102;SHT30;64830;46.910;6.354;2023-05-20T04:15:46;9.65;79.77
76102;SHT30;64830;46.910;6.354;2023-05-20T04:18:11;9.62;79.80
76102;SHT30;64830;46.910;6.354;2023-05-20T04:20:38;9.63;79.83
76102;SHT30;64830;46.910;6.354;2023-05-20T04:23:05;9.63;79.74
76102;SHT30;64830;46.910;6.354;2023-05-20T04:25:31;9.65;79.78
76102;SHT30;64830;46.910;6.354;2023-05-20T04:27:58;9.65;79.90
76102;SHT30;64830;46.910;6.354;2023-05-20T04:30:24;9.63;79.95
76102;SHT30;64830;46.910;6.354;2023-05-20T04:32:49;9.66;79.99
76102;SHT30;64830;46.910;6.354;2023-05-20T04:35:14;9.67;80.12
76102;SHT30;64830;46.910;6.354;2023-05-20T04:37:40;9.69;79.96
76102;SHT30;64830;46.910;6.354;2023-05-20T04:40:17;9.73;80.03
76102;SHT30;64830;46.910;6.354;2023-05-20T04:42:43;9.73;79.93
76102;SHT30;64830;46.910;6.354;2023-05-20T04:45:09;9.79;80.16
76102;SHT30;64830;46.910;6.354;2023-05-20T04:47:34;9.83;80.07
76102;SHT30;64830;46.910;6.354;2023-05-20T04:50:07;9.83;79.81
76102;SHT30;64830;46.910;6.354;2023-05-20T04:52:36;9.89;79.91
76102;SHT30;64830;46.910;6.354;2023-05-20T04:55:03;9.93;79.95
76102;SHT30;64830;46.910;6.354;2023-05-20T04:57:29;9.95;79.92
76102;SHT30;64830;46.910;6.354;2023-05-20T04:59:55;9.98;80.01
76102;SHT30;64830;46.910;6.354;2023-05-20T05:02:23;9.97;80.13
76102;SHT30;64830;46.910;6.354;2023-05-20T05:04:49;10.01;79.90
76102;SHT30;64830;46.910;6.354;2023-05-20T05:07:15;10.10;79.87
76102;SHT30;64830;46.910;6.354;2023-05-20T05:09:40;10.12;79.51
76102;SHT30;64830;46.910;6.354;2023-05-20T05:12:06;10.19;79.46
76102;SHT30;64830;46.910;6.354;2023-05-20T05:14:31;10.22;79.41
76102;SHT30;64830;46.910;6.354;2023-05-20T05:16:56;10.22;79.32
76102;SHT30;64830;46.910;6.354;2023-05-20T05:19:22;10.27;79.39
76102;SHT30;64830;46.910;6.354;2023-05-20T05:21:47;10.28;79.13
76102;SHT30;64830;46.910;6.354;2023-05-20T05:24:13;10.28;79.07
76102;SHT30;64830;46.910;6.354;2023-05-20T05:26:38;10.31;79.31
76102;SHT30;64830;46.910;6.354;2023-05-20T05:29:03;10.31;79.39
76102;SHT30;64830;46.910;6.354;2023-05-20T05:31:29;10.32;79.28
76102;SHT30;64830;46.910;6.354;2023-05-20T05:33:54;10.31;79.18
76102;SHT30;64830;46.910;6.354;2023-05-20T05:36:20;10.34;79.19
76102;SHT30;64830;46.910;6.354;2023-05-20T05:38:45;10.35;79.47
76102;SHT30;64830;46.910;6.354;2023-05-20T05:41:11;10.31;79.33
76102;SHT30;64830;46.910;6.354;2023-05-20T05:43:36;10.29;79.47
76102;SHT30;64830;46.910;6.354;2023-05-20T05:46:02;10.32;79.40
76102;SHT30;64830;46.910;6.354;2023-05-20T05:48:27;10.34;79.44
76102;SHT30;64830;46.910;6.354;2023-05-20T06:07:37;11.04;78.45
76102;SHT30;64830;46.910;6.354;2023-05-20T06:10:03;11.07;77.99
76102;SHT30;64830;46.910;6.354;2023-05-20T06:12:28;11.08;78.41
76102;SHT30;64830;46.910;6.354;2023-05-20T06:14:54;11.10;77.94
76102;SHT30;64830;46.910;6.354;2023-05-20T06:17:19;11.12;77.96
76102;SHT30;64830;46.910;6.354;2023-05-20T06:19:45;11.14;78.03
76102;SHT30;64830;46.910;6.354;2023-05-20T06:22:11;11.18;77.86
76102;SHT30;64830;46.910;6.354;2023-05-20T06:24:36;11.27;77.99
76102;SHT30;64830;46.910;6.354;2023-05-20T06:27:02;11.36;78.20
76102;SHT30;64830;46.910;6.354;2023-05-20T06:29:28;11.51;78.17
76102;SHT30;64830;46.910;6.354;2023-05-20T06:31:53;11.61;77.82
76102;SHT30;64830;46.910;6.354;2023-05-20T06:34:18;11.76;77.01
76102;SHT30;64830;46.910;6.354;2023-05-20T06:36:44;11.87;76.88
76102;SHT30;64830;46.910;6.354;2023-05-20T06:39:09;12.00;76.48
76102;SHT30;64830;46.910;6.354;2023-05-20T06:41:39;12.10;76.15
76102;SHT30;64830;46.910;6.354;2023-05-20T06:44:05;12.18;75.99
76102;SHT30;64830;46.910;6.354;2023-05-20T06:46:31;12.28;75.47
76102;SHT30;64830;46.910;6.354;2023-05-20T06:48:57;12.39;75.74
76102;SHT30;64830;46.910;6.354;2023-05-20T06:51:22;12.55;75.21
76102;SHT30;64830;46.910;6.354;2023-05-20T06:53:47;12.69;74.56
76102;SHT30;64830;46.910;6.354;2023-05-20T06:56:13;12.87;74.89
76102;SHT30;64830;46.910;6.354;2023-05-20T06:58:38;13.05;74.35
76102;SHT30;64830;46.910;6.354;2023-05-20T07:01:04;13.22;74.02
76102;SHT30;64830;46.910;6.354;2023-05-20T07:03:29;13.46;73.21
76102;SHT30;64830;46.910;6.354;2023-05-20T07:05:55;13.53;72.92
76102;SHT30;64830;46.910;6.354;2023-05-20T07:08:20;13.65;71.01
76102;SHT30;64830;46.910;6.354;2023-05-20T07:10:45;13.67;71.97
76102;SHT30;64830;46.910;6.354;2023-05-20T07:13:11;13.80;72.30
76102;SHT30;64830;46.910;6.354;2023-05-20T07:15:37;13.94;71.58
76102;SHT30;64830;46.910;6.354;2023-05-20T07:18:02;13.98;70.80
76102;SHT30;64830;46.910;6.354;2023-05-20T07:20:28;14.01;70.87
76102;SHT30;64830;46.910;6.354;2023-05-20T07:22:53;14.10;70.71
76102;SHT30;64830;46.910;6.354;2023-05-20T07:25:19;14.12;71.11
76102;SHT30;64830;46.910;6.354;2023-05-20T07:27:44;14.15;70.02
76102;SHT30;64830;46.910;6.354;2023-05-20T07:30:10;14.15;70.67
76102;SHT30;64830;46.910;6.354;2023-05-20T07:32:35;14.24;70.87
76102;SHT30;64830;46.910;6.354;2023-05-20T07:35:01;14.36;70.60
76102;SHT30;64830;46.910;6.354;2023-05-20T07:37:26;14.55;70.05
76102;SHT30;64830;46.910;6.354;2023-05-20T07:39:52;14.74;69.20
76102;SHT30;64830;46.910;6.354;2023-05-20T07:42:17;14.88;68.42
76102;SHT30;64830;46.910;6.354;2023-05-20T07:44:42;14.98;68.03
76102;SHT30;64830;46.910;6.354;2023-05-20T07:47:08;15.10;67.14
76102;SHT30;64830;46.910;6.354;2023-05-20T07:49:34;15.18;68.53
76102;SHT30;64830;46.910;6.354;2023-05-20T07:51:59;15.27;67.91
76102;SHT30;64830;46.910;6.354;2023-05-20T07:54:25;15.32;67.88
76102;SHT30;64830;46.910;6.354;2023-05-20T07:56:51;15.40;67.99
76102;SHT30;64830;46.910;6.354;2023-05-20T07:59:17;15.57;67.60
76102;SHT30;64830;46.910;6.354;2023-05-20T08:01:42;15.71;67.50
76102;SHT30;64830;46.910;6.354;2023-05-20T08:04:08;15.87;65.67
76102;SHT30;64830;46.910;6.354;2023-05-20T08:06:33;16.00;66.52
76102;SHT30;64830;46.910;6.354;2023-05-20T08:09:00;16.09;65.31
76102;SHT30;64830;46.910;6.354;2023-05-20T08:11:26;16.15;65.59
76102;SHT30;64830;46.910;6.354;2023-05-20T08:13:52;16.28;65.65
76102;SHT30;64830;46.910;6.354;2023-05-20T08:16:20;16.39;64.59
76102;SHT30;64830;46.910;6.354;2023-05-20T08:18:45;16.43;64.32
76102;SHT30;64830;46.910;6.354;2023-05-20T08:21:11;16.46;63.38
76102;SHT30;64830;46.910;6.354;2023-05-20T08:23:36;16.45;63.34
76102;SHT30;64830;46.910;6.354;2023-05-20T08:26:02;16.46;63.10
76102;SHT30;64830;46.910;6.354;2023-05-20T08:28:28;16.46;64.35
76102;SHT30;64830;46.910;6.354;2023-05-20T08:30:53;16.56;63.53
76102;SHT30;64830;46.910;6.354;2023-05-20T08:33:19;16.67;64.27
76102;SHT30;64830;46.910;6.354;2023-05-20T08:35:46;16.80;63.36
76102;SHT30;64830;46.910;6.354;2023-05-20T08:38:12;16.88;63.06
76102;SHT30;64830;46.910;6.354;2023-05-20T08:40:37;16.94;60.66
76102;SHT30;64830;46.910;6.354;2023-05-20T08:43:03;16.94;62.94
76102;SHT30;64830;46.910;6.354;2023-05-20T08:45:31;17.04;63.43
76102;SHT30;64830;46.910;6.354;2023-05-20T08:47:57;17.21;63.12
76102;SHT30;64830;46.910;6.354;2023-05-20T08:50:23;17.33;62.31
76102;SHT30;64830;46.910;6.354;2023-05-20T08:52:48;17.42;61.33
76102;SHT30;64830;46.910;6.354;2023-05-20T08:55:23;17.47;60.79
76102;SHT30;64830;46.910;6.354;2023-05-20T08:57:53;17.53;62.41
76102;SHT30;64830;46.910;6.354;2023-05-20T09:00:20;17.59;60.63
76102;SHT30;64830;46.910;6.354;2023-05-20T09:02:51;17.62;60.98
76102;SHT30;64830;46.910;6.354;2023-05-20T09:05:17;17.67;59.28
76102;SHT30;64830;46.910;6.354;2023-05-20T09:07:43;17.69;60.00
76102;SHT30;64830;46.910;6.354;2023-05-20T09:10:08;17.74;60.15
76102;SHT30;64830;46.910;6.354;2023-05-20T09:12:35;17.76;60.34
76102;SHT30;64830;46.910;6.354;2023-05-20T09:15:00;17.83;59.23
76102;SHT30;64830;46.910;6.354;2023-05-20T09:17:26;17.84;59.69
76102;SHT30;64830;46.910;6.354;2023-05-20T09:19:54;17.87;60.12
76102;SHT30;64830;46.910;6.354;2023-05-20T09:22:23;17.90;59.25
76102;SHT30;64830;46.910;6.354;2023-05-20T09:24:50;17.93;59.46
76102;SHT30;64830;46.910;6.354;2023-05-20T09:27:20;17.97;59.10
76102;SHT30;64830;46.910;6.354;2023-05-20T09:29:47;18.01;59.13
76102;SHT30;64830;46.910;6.354;2023-05-20T09:32:13;18.05;58.73
76102;SHT30;64830;46.910;6.354;2023-05-20T09:34:39;18.01;58.53
76102;SHT30;64830;46.910;6.354;2023-05-20T09:37:07;18.05;59.16
76102;SHT30;64830;46.910;6.354;2023-05-20T09:39:39;18.05;59.18
76102;SHT30;64830;46.910;6.354;2023-05-20T09:42:22;18.01;59.48
76102;SHT30;64830;46.910;6.354;2023-05-20T09:44:51;17.97;59.28
76102;SHT30;64830;46.910;6.354;2023-05-20T09:47:18;18.02;58.87
76102;SHT30;64830;46.910;6.354;2023-05-20T09:49:45;18.02;59.40
76102;SHT30;64830;46.910;6.354;2023-05-20T09:52:13;18.07;60.05
76102;SHT30;64830;46.910;6.354;2023-05-20T09:54:39;18.07;58.60
76102;SHT30;64830;46.910;6.354;2023-05-20T09:57:06;18.12;59.32
76102;SHT30;64830;46.910;6.354;2023-05-20T09:59:33;18.24;59.56
76102;SHT30;64830;46.910;6.354;2023-05-20T10:02:00;18.42;60.36
76102;SHT30;64830;46.910;6.354;2023-05-20T10:04:27;18.52;59.07
76102;SHT30;64830;46.910;6.354;2023-05-20T10:07:20;18.56;57.66
76102;SHT30;64830;46.910;6.354;2023-05-20T10:23:43;18.39;58.24
76102;SHT30;64830;46.910;6.354;2023-05-20T10:26:08;18.41;58.70
76102;SHT30;64830;46.910;6.354;2023-05-20T10:28:35;18.46;58.57
76102;SHT30;64830;46.910;6.354;2023-05-20T10:31:01;18.55;57.97
76102;SHT30;64830;46.910;6.354;2023-05-20T10:33:28;18.66;58.53
76102;SHT30;64830;46.910;6.354;2023-05-20T10:35:57;18.90;57.53
76102;SHT30;64830;46.910;6.354;2023-05-20T10:38:23;19.08;57.87
76102;SHT30;64830;46.910;6.354;2023-05-20T10:40:48;19.19;56.62
76102;SHT30;64830;46.910;6.354;2023-05-20T10:43:25;19.26;56.34
76102;SHT30;64830;46.910;6.354;2023-05-20T10:45:56;19.32;56.59
76102;SHT30;64830;46.910;6.354;2023-05-20T10:48:26;19.36;56.86
76102;SHT30;64830;46.910;6.354;2023-05-20T10:50:56;19.42;56.46
76102;SHT30;64830;46.910;6.354;2023-05-20T10:53:23;19.40;56.37
76102;SHT30;64830;46.910;6.354;2023-05-20T10:55:50;19.43;57.87
76102;SHT30;64830;46.910;6.354;2023-05-20T10:58:16;19.43;56.50
76102;SHT30;64830;46.910;6.354;2023-05-20T11:00:42;19.48;56.44
76102;SHT30;64830;46.910;6.354;2023-05-20T11:03:08;19.56;56.23
76102;SHT30;64830;46.910;6.354;2023-05-20T11:05:38;19.60;55.88
76102;SHT30;64830;46.910;6.354;2023-05-20T11:21:58;20.04;53.65
76102;SHT30;64830;46.910;6.354;2023-05-20T11:24:25;20.08;53.26
76102;SHT30;64830;46.910;6.354;2023-05-20T11:26:51;20.07;54.66
76102;SHT30;64830;46.910;6.354;2023-05-20T11:29:17;20.02;54.69
76102;SHT30;64830;46.910;6.354;2023-05-20T11:31:44;20.00;55.40
76102;SHT30;64830;46.910;6.354;2023-05-20T11:34:09;19.98;55.66
76102;SHT30;64830;46.910;6.354;2023-05-20T11:36:40;19.93;55.69
76102;SHT30;64830;46.910;6.354;2023-05-20T11:39:05;19.95;55.72
76102;SHT30;64830;46.910;6.354;2023-05-20T11:41:33;19.94;55.25
76102;SHT30;64830;46.910;6.354;2023-05-20T11:44:00;20.08;54.75
76102;SHT30;64830;46.910;6.354;2023-05-20T11:46:26;20.11;54.81
76102;SHT30;64830;46.910;6.354;2023-05-20T11:48:56;20.18;54.78
76102;SHT30;64830;46.910;6.354;2023-05-20T11:51:30;20.08;55.13
76102;SHT30;64830;46.910;6.354;2023-05-20T11:54:03;19.97;55.22
76102;SHT30;64830;46.910;6.354;2023-05-20T11:56:29;19.94;56.42
76102;SHT30;64830;46.910;6.354;2023-05-20T11:58:59;19.94;55.94
76102;SHT30;64830;46.910;6.354;2023-05-20T12:01:25;19.80;56.04
76102;SHT30;64830;46.910;6.354;2023-05-20T12:03:52;19.73;56.35
76102;SHT30;64830;46.910;6.354;2023-05-20T12:06:18;19.67;56.17
76102;SHT30;64830;46.910;6.354;2023-05-20T12:08:43;19.50;56.51
76102;SHT30;64830;46.910;6.354;2023-05-20T12:11:09;19.46;56.29
76102;SHT30;64830;46.910;6.354;2023-05-20T12:13:34;19.32;56.90
76102;SHT30;64830;46.910;6.354;2023-05-20T12:16:00;19.26;56.42
76102;SHT30;64830;46.910;6.354;2023-05-20T12:18:25;19.19;57.01
76102;SHT30;64830;46.910;6.354;2023-05-20T12:20:51;19.18;56.73
76102;SHT30;64830;46.910;6.354;2023-05-20T12:23:16;19.14;57.36
76102;SHT30;64830;46.910;6.354;2023-05-20T12:25:42;19.12;57.13
76102;SHT30;64830;46.910;6.354;2023-05-20T12:28:07;19.08;57.32
76102;SHT30;64830;46.910;6.354;2023-05-20T12:30:32;19.04;57.46
76102;SHT30;64830;46.910;6.354;2023-05-20T12:32:58;19.01;57.36
76102;SHT30;64830;46.910;6.354;2023-05-20T12:35:25;19.04;57.91
76102;SHT30;64830;46.910;6.354;2023-05-20T12:38:00;19.03;57.50
76102;SHT30;64830;46.910;6.354;2023-05-20T12:40:25;19.00;58.10
76102;SHT30;64830;46.910;6.354;2023-05-20T12:42:51;18.93;58.29
76102;SHT30;64830;46.910;6.354;2023-05-20T12:45:16;18.91;58.33
76102;SHT30;64830;46.910;6.354;2023-05-20T12:47:42;18.83;58.48
76102;SHT30;64830;46.910;6.354;2023-05-20T12:50:08;18.76;59.47
76102;SHT30;64830;46.910;6.354;2023-05-20T12:52:34;18.81;59.19
76102;SHT30;64830;46.910;6.354;2023-05-20T12:54:59;18.84;59.21
76102;SHT30;64830;46.910;6.354;2023-05-20T12:57:25;18.91;59.47
76102;SHT30;64830;46.910;6.354;2023-05-20T12:59:51;18.95;58.95
76102;SHT30;64830;46.910;6.354;2023-05-20T13:02:16;18.91;59.35
76102;SHT30;64830;46.910;6.354;2023-05-20T13:04:41;18.95;59.66
76102;SHT30;64830;46.910;6.354;2023-05-20T13:07:07;19.03;59.18
76102;SHT30;64830;46.910;6.354;2023-05-20T13:09:32;19.07;59.21
76102;SHT30;64830;46.910;6.354;2023-05-20T13:11:59;19.15;59.13
76102;SHT30;64830;46.910;6.354;2023-05-20T13:14:25;19.22;59.21
76102;SHT30;64830;46.910;6.354;2023-05-20T13:16:50;19.29;59.40
76102;SHT30;64830;46.910;6.354;2023-05-20T13:19:22;19.32;59.45
76102;SHT30;64830;46.910;6.354;2023-05-20T13:21:49;19.35;59.34
76102;SHT30;64830;46.910;6.354;2023-05-20T13:24:15;19.26;58.02
76102;SHT30;64830;46.910;6.354;2023-05-20T13:26:41;19.18;58.28
76102;SHT30;64830;46.910;6.354;2023-05-20T13:29:06;19.08;58.32
76102;SHT30;64830;46.910;6.354;2023-05-20T13:31:31;18.98;59.01
76102;SHT30;64830;46.910;6.354;2023-05-20T13:33:57;18.94;58.98
76102;SHT30;64830;46.910;6.354;2023-05-20T13:36:25;18.87;59.21
76102;SHT30;64830;46.910;6.354;2023-05-20T13:38:50;18.80;59.29
76102;SHT30;64830;46.910;6.354;2023-05-20T13:41:16;18.69;59.10
76102;SHT30;64830;46.910;6.354;2023-05-20T13:43:41;18.61;59.47
76102;SHT30;64830;46.910;6.354;2023-05-20T13:46:07;18.56;59.65
76102;SHT30;64830;46.910;6.354;2023-05-20T13:48:33;18.52;59.53
76102;SHT30;64830;46.910;6.354;2023-05-20T13:50:58;18.46;59.44
76102;SHT30;64830;46.910;6.354;2023-05-20T13:53:26;18.42;60.02
76102;SHT30;64830;46.910;6.354;2023-05-20T13:55:51;18.39;59.77
76102;SHT30;64830;46.910;6.354;2023-05-20T13:58:16;18.36;59.65
76102;SHT30;64830;46.910;6.354;2023-05-20T14:00:42;18.24;59.47
76102;SHT30;64830;46.910;6.354;2023-05-20T14:03:07;18.12;60.14
76102;SHT30;64830;46.910;6.354;2023-05-20T14:05:34;18.05;59.86
76102;SHT30;64830;46.910;6.354;2023-05-20T14:08:00;17.96;60.18
76102;SHT30;64830;46.910;6.354;2023-05-20T14:10:26;17.88;60.77
76102;SHT30;64830;46.910;6.354;2023-05-20T14:12:53;17.80;60.39
76102;SHT30;64830;46.910;6.354;2023-05-20T14:15:19;17.69;60.67
76102;SHT30;64830;46.910;6.354;2023-05-20T14:17:44;17.60;61.18
76102;SHT30;64830;46.910;6.354;2023-05-20T14:20:10;17.56;61.10
76102;SHT30;64830;46.910;6.354;2023-05-20T14:22:35;17.53;61.27
76102;SHT30;64830;46.910;6.354;2023-05-20T14:25:01;17.50;61.52
76102;SHT30;64830;46.910;6.354;2023-05-20T14:27:28;17.52;61.06
76102;SHT30;64830;46.910;6.354;2023-05-20T14:29:53;17.50;61.42
76102;SHT30;64830;46.910;6.354;2023-05-20T14:32:19;17.50;61.56
76102;SHT30;64830;46.910;6.354;2023-05-20T14:34:44;17.52;60.93
76102;SHT30;64830;46.910;6.354;2023-05-20T14:37:09;17.49;61.08
76102;SHT30;64830;46.910;6.354;2023-05-20T14:39:36;17.45;60.78
76102;SHT30;64830;46.910;6.354;2023-05-20T14:42:01;17.45;61.19
76102;SHT30;64830;46.910;6.354;2023-05-20T14:44:28;17.43;60.85
76102;SHT30;64830;46.910;6.354;2023-05-20T14:46:53;17.38;60.61
76102;SHT30;64830;46.910;6.354;2023-05-20T14:49:19;17.29;60.81
76102;SHT30;64830;46.910;6.354;2023-05-20T14:51:44;17.25;61.05
76102;SHT30;64830;46.910;6.354;2023-05-20T14:54:10;17.24;60.93
76102;SHT30;64830;46.910;6.354;2023-05-20T14:56:35;17.22;60.99
76102;SHT30;64830;46.910;6.354;2023-05-20T14:59:01;17.18;60.91
76102;SHT30;64830;46.910;6.354;2023-05-20T15:01:26;17.12;60.93
76102;SHT30;64830;46.910;6.354;2023-05-20T15:03:52;17.05;61.10
76102;SHT30;64830;46.910;6.354;2023-05-20T15:06:17;17.04;61.34
76102;SHT30;64830;46.910;6.354;2023-05-20T15:08:42;17.03;61.43
76102;SHT30;64830;46.910;6.354;2023-05-20T15:11:08;17.03;61.39
76102;SHT30;64830;46.910;6.354;2023-05-20T15:13:33;16.98;62.02
76102;SHT30;64830;46.910;6.354;2023-05-20T15:15:59;16.94;61.70
76102;SHT30;64830;46.910;6.354;2023-05-20T15:18:24;16.94;61.79
76102;SHT30;64830;46.910;6.354;2023-05-20T15:20:52;16.94;61.79
76102;SHT30;64830;46.910;6.354;2023-05-20T15:23:17;16.91;61.68
76102;SHT30;64830;46.910;6.354;2023-05-20T15:25:43;16.88;61.85
76102;SHT30;64830;46.910;6.354;2023-05-20T15:28:08;16.85;61.85
76102;SHT30;64830;46.910;6.354;2023-05-20T15:30:33;16.81;62.11
76102;SHT30;64830;46.910;6.354;2023-05-20T15:32:59;16.79;62.14
76102;SHT30;64830;46.910;6.354;2023-05-20T15:35:25;16.77;62.35
76102;SHT30;64830;46.910;6.354;2023-05-20T15:37:50;16.76;62.46
76102;SHT30;64830;46.910;6.354;2023-05-20T15:40:16;16.76;62.73
76102;SHT30;64830;46.910;6.354;2023-05-20T15:42:41;16.76;62.83
76102;SHT30;64830;46.910;6.354;2023-05-20T15:45:08;16.71;62.76
76102;SHT30;64830;46.910;6.354;2023-05-20T15:47:34;16.73;62.74
76102;SHT30;64830;46.910;6.354;2023-05-20T15:49:59;16.70;63.16
76102;SHT30;64830;46.910;6.354;2023-05-20T15:52:29;16.69;62.87
76102;SHT30;64830;46.910;6.354;2023-05-20T15:54:54;16.63;62.90
76102;SHT30;64830;46.910;6.354;2023-05-20T15:57:20;16.62;63.05
76102;SHT30;64830;46.910;6.354;2023-05-20T15:59:46;16.62;63.23
76102;SHT30;64830;46.910;6.354;2023-05-20T16:02:12;16.59;63.25
76102;SHT30;64830;46.910;6.354;2023-05-20T16:04:37;16.55;63.26
76102;SHT30;64830;46.910;6.354;2023-05-20T16:07:03;16.49;63.58
76102;SHT30;64830;46.910;6.354;2023-05-20T16:09:28;16.42;63.69
76102;SHT30;64830;46.910;6.354;2023-05-20T16:11:54;16.35;63.71